sensor_id;sensor_type;location;lat;lon;timestamp;temperature;humidity
21163;DHT22;10739;52.198;20.908;2023-04-29T00:01:48;6.30;99.90
21163;DHT22;10739;52.198;20.908;2023-04-29T00:04:14;6.20;99.90
21163;DHT22;10739;52.198;20.908;2023-04-29T00:06:41;6.20;99.90
21163;DHT22;10739;52.198;20.908;2023-04-29T00:09:07;6.20;99.90
21163;DHT22;10739;52.198;20.908;2023-04-29T00:11:33;6.20;99.90
21163;DHT22;10739;52.198;20.908;2023-04-29T00:13:59;6.20;99.90
21163;DHT22;10739;52.198;20.908;2023-04-29T00:16:26;6.20;99.90
21163;DHT22;10739;52.198;20.908;2023-04-29T00:18:52;6.20;99.90
21163;DHT22;10739;52.198;20.908;2023-04-29T00:21:19;6.30;99.90
21163;DHT22;10739;52.198;20.908;2023-04-29T00:23:45;6.30;99.90
21163;DHT22;10739;52.198;20.908;2023-04-29T00:26:11;6.40;99.90
21163;DHT22;10739;52.198;20.908;2023-04-29T00:28:38;6.40;99.90
21163;DHT22;10739;52.198;20.908;2023-04-29T00:31:04;6.40;99.90
21163;DHT22;10739;52.198;20.908;2023-04-29T00:33:30;6.40;99.90
21163;DHT22;10739;52.198;20.908;2023-04-29T00:35:57;6.40;99.90
21163;DHT22;10739;52.198;20.908;2023-04-29T00:38:23;6.40;99.90
21163;DHT22;10739;52.198;20.908;2023-04-29T00:40:50;6.40;99.90
21163;DHT22;10739;52.198;20.908;2023-04-29T00:43:16;6.40;99.90
21163;DHT22;10739;52.198;20.908;2023-04-29T00:45:42;6.40;99.90
21163;DHT22;10739;52.198;20.908;2023-04-29T00:48:12;6.40;99.90
21163;DHT22;10739;52.198;20.908;2023-04-29T00:50:40;6.50;99.90
21163;DHT22;10739;52.198;20.908;2023-04-29T00:53:08;6.40;99.90
21163;DHT22;10739;52.198;20.908;2023-04-29T00:55:37;6.40;99.90
21163;DHT22;10739;52.198;20.908;2023-04-29T00:58:05;6.40;99.90
21163;DHT22;10739;52.198;20.908;2023-04-29T01:00:31;6.40;99.90
21163;DHT22;10739;52.198;20.908;2023-04-29T01:02:58;6.40;99.90
21163;DHT22;10739;52.198;20.908;2023-04-29T01:05:25;6.40;99.90
21163;DHT22;10739;52.198;20.908;2023-04-29T01:08:28;6.40;99.90
21163;DHT22;10739;52.198;20.908;2023-04-29T01:11:09;6.40;99.90
21163;DHT22;10739;52.198;20.908;2023-04-29T01:13:51;6.40;99.90
21163;DHT22;10739;52.198;20.908;2023-04-29T01:16:33;6.40;99.90
21163;DHT22;10739;52.198;20.908;2023-04-29T01:19:43;6.40;99.90
21163;DHT22;10739;52.198;20.908;2023-04-29T01:22:13;6.30;99.90
21163;DHT22;10739;52.198;20.908;2023-04-29T01:24:39;6.30;99.90
21163;DHT22;10739;52.198;20.908;2023-04-29T01:36:36;6.30;99.90
21163;DHT22;10739;52.198;20.908;2023-04-29T01:39:54;6.30;99.90
21163;DHT22;10739;52.198;20.908;2023-04-29T01:42:55;6.30;99.90
21163;DHT22;10739;52.198;20.908;2023-04-29T01:45:31;6.20;99.90
21163;DHT22;10739;52.198;20.908;2023-04-29T01:47:59;6.20;99.90
21163;DHT22;10739;52.198;20.908;2023-04-29T01:50:27;6.20;99.90
21163;DHT22;10739;52.198;20.908;2023-04-29T01:52:53;6.10;99.90
21163;DHT22;10739;52.198;20.908;2023-04-29T01:55:20;6.10;99.90
21163;DHT22;10739;52.198;20.908;2023-04-29T01:57:47;6.10;99.90
21163;DHT22;10739;52.198;20.908;2023-04-29T02:00:13;6.10;99.90
21163;DHT22;10739;52.198;20.908;2023-04-29T02:02:40;6.10;99.90
21163;DHT22;10739;52.198;20.908;2023-04-29T02:05:06;6.20;99.90
21163;DHT22;10739;52.198;20.908;2023-04-29T02:07:32;6.10;99.90
21163;DHT22;10739;52.198;20.908;2023-04-29T02:09:59;6.10;99.90
21163;DHT22;10739;52.198;20.908;2023-04-29T02:12:25;6.10;99.90
21163;DHT22;10739;52.198;20.908;2023-04-29T02:14:52;6.10;99.90
21163;DHT22;10739;52.198;20.908;2023-04-29T02:17:18;6.10;99.90
21163;DHT22;10739;52.198;20.908;2023-04-29T02:19:45;6.10;99.90
21163;DHT22;10739;52.198;20.908;2023-04-29T02:22:11;6.10;99.90
21163;DHT22;10739;52.198;20.908;2023-04-29T02:24:38;6.10;99.90
21163;DHT22;10739;52.198;20.908;2023-04-29T02:27:04;6.10;99.90
21163;DHT22;10739;52.198;20.908;2023-04-29T02:29:31;6.10;99.90
21163;DHT22;10739;52.198;20.908;2023-04-29T02:31:58;6.10;99.90
21163;DHT22;10739;52.198;20.908;2023-04-29T02:34:24;6.10;99.90
21163;DHT22;10739;52.198;20.908;2023-04-29T02:36:50;6.10;99.90
21163;DHT22;10739;52.198;20.908;2023-04-29T02:39:17;6.10;99.90
21163;DHT22;10739;52.198;20.908;2023-04-29T02:41:44;6.10;99.90
21163;DHT22;10739;52.198;20.908;2023-04-29T02:44:11;6.10;99.90
21163;DHT22;10739;52.198;20.908;2023-04-29T02:46:37;6.10;99.90
21163;DHT22;10739;52.198;20.908;2023-04-29T02:49:05;6.10;99.90
21163;DHT22;10739;52.198;20.908;2023-04-29T02:51:32;6.00;99.90
21163;DHT22;10739;52.198;20.908;2023-04-29T02:53:58;6.00;99.90
21163;DHT22;10739;52.198;20.908;2023-04-29T02:56:24;6.10;99.90
21163;DHT22;10739;52.198;20.908;2023-04-29T02:58:51;6.10;99.90
21163;DHT22;10739;52.198;20.908;2023-04-29T03:01:17;6.10;99.90
21163;DHT22;10739;52.198;20.908;2023-04-29T03:03:43;6.10;99.90
21163;DHT22;10739;52.198;20.908;2023-04-29T03:06:10;6.10;99.90
21163;DHT22;10739;52.198;20.908;2023-04-29T03:08:36;6.00;99.90
21163;DHT22;10739;52.198;20.908;2023-04-29T03:11:02;6.00;99.90
21163;DHT22;10739;52.198;20.908;2023-04-29T03:13:28;6.00;99.90
21163;DHT22;10739;52.198;20.908;2023-04-29T03:15:55;6.00;99.90
21163;DHT22;10739;52.198;20.908;2023-04-29T03:18:23;6.10;99.90
21163;DHT22;10739;52.198;20.908;2023-04-29T03:20:50;6.10;99.90
21163;DHT22;10739;52.198;20.908;2023-04-29T03:23:16;6.00;99.90
21163;DHT22;10739;52.198;20.908;2023-04-29T03:25:42;6.10;99.90
21163;DHT22;10739;52.198;20.908;2023-04-29T03:28:09;6.10;99.90
21163;DHT22;10739;52.198;20.908;2023-04-29T03:30:35;6.00;99.90
21163;DHT22;10739;52.198;20.908;2023-04-29T03:33:02;6.00;99.90
21163;DHT22;10739;52.198;20.908;2023-04-29T03:35:28;6.00;99.90
21163;DHT22;10739;52.198;20.908;2023-04-29T03:37:55;6.00;99.90
21163;DHT22;10739;52.198;20.908;2023-04-29T03:40:21;6.00;99.90
21163;DHT22;10739;52.198;20.908;2023-04-29T03:42:47;6.00;99.90
21163;DHT22;10739;52.198;20.908;2023-04-29T03:45:14;6.00;99.90
21163;DHT22;10739;52.198;20.908;2023-04-29T03:47:40;6.00;99.90
21163;DHT22;10739;52.198;20.908;2023-04-29T03:50:07;6.10;99.90
21163;DHT22;10739;52.198;20.908;2023-04-29T03:52:34;6.10;99.90
21163;DHT22;10739;52.198;20.908;2023-04-29T03:55:04;6.10;99.90
21163;DHT22;10739;52.198;20.908;2023-04-29T03:57:30;6.10;99.90
21163;DHT22;10739;52.198;20.908;2023-04-29T03:59:57;6.10;99.90
21163;DHT22;10739;52.198;20.908;2023-04-29T04:02:23;6.10;99.90
21163;DHT22;10739;52.198;20.908;2023-04-29T04:04:49;6.10;99.90
21163;DHT22;10739;52.198;20.908;2023-04-29T04:07:15;6.10;99.90
21163;DHT22;10739;52.198;20.908;2023-04-29T04:09:41;6.10;99.90
21163;DHT22;10739;52.198;20.908;2023-04-29T04:12:08;6.10;99.90
21163;DHT22;10739;52.198;20.908;2023-04-29T04:14:34;6.10;99.90
21163;DHT22;10739;52.198;20.908;2023-04-29T04:17:00;6.10;99.90
21163;DHT22;10739;52.198;20.908;2023-04-29T04:19:28;6.10;99.90
21163;DHT22;10739;52.198;20.908;2023-04-29T04:21:55;6.20;99.90
21163;DHT22;10739;52.198;20.908;2023-04-29T04:24:22;6.20;99.90
21163;DHT22;10739;52.198;20.908;2023-04-29T04:26:48;6.20;99.90
21163;DHT22;10739;52.198;20.908;2023-04-29T04:29:14;6.30;99.90
21163;DHT22;10739;52.198;20.908;2023-04-29T04:31:40;6.30;99.90
21163;DHT22;10739;52.198;20.908;2023-04-29T04:34:07;6.30;99.90
21163;DHT22;10739;52.198;20.908;2023-04-29T04:36:33;6.40;99.90
21163;DHT22;10739;52.198;20.908;2023-04-29T04:38:59;6.40;99.90
21163;DHT22;10739;52.198;20.908;2023-04-29T04:41:26;6.50;99.90
21163;DHT22;10739;52.198;20.908;2023-04-29T04:43:52;6.60;99.90
21163;DHT22;10739;52.198;20.908;2023-04-29T04:46:18;6.60;99.90
21163;DHT22;10739;52.198;20.908;2023-04-29T04:48:45;6.70;99.90
21163;DHT22;10739;52.198;20.908;2023-04-29T04:51:12;6.80;99.90
21163;DHT22;10739;52.198;20.908;2023-04-29T04:53:39;6.90;99.90
21163;DHT22;10739;52.198;20.908;2023-04-29T04:56:06;7.00;99.90
21163;DHT22;10739;52.198;20.908;2023-04-29T04:58:33;7.10;99.90
21163;DHT22;10739;52.198;20.908;2023-04-29T05:00:59;7.20;99.90
21163;DHT22;10739;52.198;20.908;2023-04-29T05:03:26;7.30;99.90
21163;DHT22;10739;52.198;20.908;2023-04-29T05:05:54;7.30;99.90
21163;DHT22;10739;52.198;20.908;2023-04-29T05:08:20;7.40;99.90
21163;DHT22;10739;52.198;20.908;2023-04-29T05:10:47;7.50;99.90
21163;DHT22;10739;52.198;20.908;2023-04-29T05:13:13;7.60;99.90
21163;DHT22;10739;52.198;20.908;2023-04-29T05:15:39;7.60;99.90
21163;DHT22;10739;52.198;20.908;2023-04-29T05:18:06;7.70;99.90
21163;DHT22;10739;52.198;20.908;2023-04-29T05:20:32;7.80;99.90
21163;DHT22;10739;52.198;20.908;2023-04-29T05:22:58;8.00;99.90
21163;DHT22;10739;52.198;20.908;2023-04-29T05:25:25;8.00;99.90
21163;DHT22;10739;52.198;20.908;2023-04-29T05:27:51;8.00;99.90
21163;DHT22;10739;52.198;20.908;2023-04-29T05:30:18;8.00;99.90
21163;DHT22;10739;52.198;20.908;2023-04-29T05:32:44;8.00;99.90
21163;DHT22;10739;52.198;20.908;2023-04-29T05:35:11;8.10;99.90
21163;DHT22;10739;52.198;20.908;2023-04-29T05:37:37;8.20;99.90
21163;DHT22;10739;52.198;20.908;2023-04-29T05:40:04;8.40;99.90
21163;DHT22;10739;52.198;20.908;2023-04-29T05:42:31;8.40;99.90
21163;DHT22;10739;52.198;20.908;2023-04-29T05:44:57;8.50;99.90
21163;DHT22;10739;52.198;20.908;2023-04-29T05:47:23;8.60;99.90
21163;DHT22;10739;52.198;20.908;2023-04-29T05:49:50;8.70;99.90
21163;DHT22;10739;52.198;20.908;2023-04-29T05:52:16;8.90;99.90
21163;DHT22;10739;52.198;20.908;2023-04-29T05:54:42;8.90;99.90
21163;DHT22;10739;52.198;20.908;2023-04-29T05:57:08;9.00;99.90
21163;DHT22;10739;52.198;20.908;2023-04-29T05:59:35;9.10;99.90
21163;DHT22;10739;52.198;20.908;2023-04-29T06:02:01;9.20;99.90
21163;DHT22;10739;52.198;20.908;2023-04-29T06:04:27;9.30;99.90
21163;DHT22;10739;52.198;20.908;2023-04-29T06:06:55;9.40;99.90
21163;DHT22;10739;52.198;20.908;2023-04-29T06:09:22;9.50;99.90
21163;DHT22;10739;52.198;20.908;2023-04-29T06:11:55;9.60;99.90
21163;DHT22;10739;52.198;20.908;2023-04-29T06:14:21;9.80;99.90
21163;DHT22;10739;52.198;20.908;2023-04-29T06:16:47;10.00;99.90
21163;DHT22;10739;52.198;20.908;2023-04-29T06:19:14;10.20;99.90
21163;DHT22;10739;52.198;20.908;2023-04-29T06:21:40;10.30;99.90
21163;DHT22;10739;52.198;20.908;2023-04-29T06:24:06;10.30;99.90
21163;DHT22;10739;52.198;20.908;2023-04-29T06:26:32;10.40;99.90
21163;DHT22;10739;52.198;20.908;2023-04-29T06:28:59;10.50;99.30
21163;DHT22;10739;52.198;20.908;2023-04-29T06:31:25;10.70;98.80
21163;DHT22;10739;52.198;20.908;2023-04-29T06:33:52;10.70;98.30
21163;DHT22;10739;52.198;20.908;2023-04-29T06:36:19;10.80;97.90
21163;DHT22;10739;52.198;20.908;2023-04-29T06:38:46;10.80;97.80
21163;DHT22;10739;52.198;20.908;2023-04-29T06:41:12;11.00;98.10
21163;DHT22;10739;52.198;20.908;2023-04-29T06:43:38;11.10;97.50
21163;DHT22;10739;52.198;20.908;2023-04-29T06:46:05;11.30;96.60
21163;DHT22;10739;52.198;20.908;2023-04-29T06:48:31;11.40;96.80
21163;DHT22;10739;52.198;20.908;2023-04-29T06:50:58;11.60;96.20
21163;DHT22;10739;52.198;20.908;2023-04-29T06:53:25;11.60;94.70
21163;DHT22;10739;52.198;20.908;2023-04-29T06:55:51;11.70;94.90
21163;DHT22;10739;52.198;20.908;2023-04-29T06:58:18;12.00;94.10
21163;DHT22;10739;52.198;20.908;2023-04-29T07:00:49;12.20;93.80
21163;DHT22;10739;52.198;20.908;2023-04-29T07:03:17;12.20;93.30
21163;DHT22;10739;52.198;20.908;2023-04-29T07:05:43;12.40;92.90
21163;DHT22;10739;52.198;20.908;2023-04-29T07:08:11;12.50;93.10
21163;DHT22;10739;52.198;20.908;2023-04-29T07:10:38;12.60;92.60
21163;DHT22;10739;52.198;20.908;2023-04-29T07:13:06;12.50;91.20
21163;DHT22;10739;52.198;20.908;2023-04-29T07:15:34;12.50;90.50
21163;DHT22;10739;52.198;20.908;2023-04-29T07:18:05;12.70;91.10
21163;DHT22;10739;52.198;20.908;2023-04-29T07:20:32;12.90;91.50
21163;DHT22;10739;52.198;20.908;2023-04-29T07:23:01;12.90;89.60
21163;DHT22;10739;52.198;20.908;2023-04-29T07:25:27;12.80;89.40
21163;DHT22;10739;52.198;20.908;2023-04-29T07:27:54;13.10;89.70
21163;DHT22;10739;52.198;20.908;2023-04-29T07:30:21;13.30;87.90
21163;DHT22;10739;52.198;20.908;2023-04-29T07:32:48;13.40;91.40
21163;DHT22;10739;52.198;20.908;2023-04-29T07:35:14;13.70;91.20
21163;DHT22;10739;52.198;20.908;2023-04-29T07:37:40;14.10;85.70
21163;DHT22;10739;52.198;20.908;2023-04-29T07:40:08;14.00;84.40
21163;DHT22;10739;52.198;20.908;2023-04-29T07:42:35;14.10;83.70
21163;DHT22;10739;52.198;20.908;2023-04-29T07:45:01;14.20;85.60
21163;DHT22;10739;52.198;20.908;2023-04-29T07:47:27;14.10;80.30
21163;DHT22;10739;52.198;20.908;2023-04-29T07:49:53;14.00;80.80
21163;DHT22;10739;52.198;20.908;2023-04-29T07:52:19;14.00;79.70
21163;DHT22;10739;52.198;20.908;2023-04-29T07:54:46;14.00;79.80
21163;DHT22;10739;52.198;20.908;2023-04-29T07:57:12;14.30;80.90
21163;DHT22;10739;52.198;20.908;2023-04-29T07:59:38;14.60;79.00
21163;DHT22;10739;52.198;20.908;2023-04-29T08:02:05;15.00;79.10
21163;DHT22;10739;52.198;20.908;2023-04-29T08:04:31;14.80;75.70
21163;DHT22;10739;52.198;20.908;2023-04-29T08:06:58;14.70;76.30
21163;DHT22;10739;52.198;20.908;2023-04-29T08:09:24;14.70;76.70
21163;DHT22;10739;52.198;20.908;2023-04-29T08:11:50;14.80;75.00
21163;DHT22;10739;52.198;20.908;2023-04-29T08:14:17;14.70;75.90
21163;DHT22;10739;52.198;20.908;2023-04-29T08:16:43;15.00;75.40
21163;DHT22;10739;52.198;20.908;2023-04-29T08:19:09;15.00;73.70
21163;DHT22;10739;52.198;20.908;2023-04-29T08:21:36;15.20;73.70
21163;DHT22;10739;52.198;20.908;2023-04-29T08:24:02;15.30;72.90
21163;DHT22;10739;52.198;20.908;2023-04-29T08:26:30;15.40;72.10
21163;DHT22;10739;52.198;20.908;2023-04-29T08:28:56;15.60;70.40
21163;DHT22;10739;52.198;20.908;2023-04-29T08:31:23;15.80;70.90
21163;DHT22;10739;52.198;20.908;2023-04-29T08:33:50;15.80;69.20
21163;DHT22;10739;52.198;20.908;2023-04-29T08:36:17;15.90;69.50
21163;DHT22;10739;52.198;20.908;2023-04-29T08:38:43;16.20;69.00
21163;DHT22;10739;52.198;20.908;2023-04-29T08:41:09;16.30;67.60
21163;DHT22;10739;52.198;20.908;2023-04-29T08:43:36;16.30;66.60
21163;DHT22;10739;52.198;20.908;2023-04-29T08:46:05;16.40;66.90
21163;DHT22;10739;52.198;20.908;2023-04-29T08:48:33;16.40;67.30
21163;DHT22;10739;52.198;20.908;2023-04-29T08:51:01;16.00;66.20
21163;DHT22;10739;52.198;20.908;2023-04-29T08:53:28;17.40;65.90
21163;DHT22;10739;52.198;20.908;2023-04-29T08:55:57;16.90;64.40
21163;DHT22;10739;52.198;20.908;2023-04-29T08:58:32;16.90;64.60
21163;DHT22;10739;52.198;20.908;2023-04-29T09:01:00;16.90;63.50
21163;DHT22;10739;52.198;20.908;2023-04-29T09:03:33;16.90;64.30
21163;DHT22;10739;52.198;20.908;2023-04-29T09:06:09;17.00;62.20
21163;DHT22;10739;52.198;20.908;2023-04-29T09:08:37;16.80;61.70
21163;DHT22;10739;52.198;20.908;2023-04-29T09:11:07;17.10;63.20
21163;DHT22;10739;52.198;20.908;2023-04-29T09:13:36;17.60;62.40
21163;DHT22;10739;52.198;20.908;2023-04-29T09:16:02;17.50;61.70
21163;DHT22;10739;52.198;20.908;2023-04-29T09:18:49;17.70;63.00
21163;DHT22;10739;52.198;20.908;2023-04-29T09:21:20;17.40;60.90
21163;DHT22;10739;52.198;20.908;2023-04-29T09:23:59;17.50;61.80
21163;DHT22;10739;52.198;20.908;2023-04-29T09:26:27;17.70;62.90
21163;DHT22;10739;52.198;20.908;2023-04-29T09:29:12;17.50;61.60
21163;DHT22;10739;52.198;20.908;2023-04-29T09:31:40;17.40;61.30
21163;DHT22;10739;52.198;20.908;2023-04-29T09:34:07;17.20;61.70
21163;DHT22;10739;52.198;20.908;2023-04-29T09:36:48;17.00;61.10
21163;DHT22;10739;52.198;20.908;2023-04-29T09:39:16;16.80;61.80
21163;DHT22;10739;52.198;20.908;2023-04-29T09:44:26;16.60;62.30
21163;DHT22;10739;52.198;20.908;2023-04-29T09:46:59;16.80;63.30
21163;DHT22;10739;52.198;20.908;2023-04-29T09:49:33;16.80;63.90
21163;DHT22;10739;52.198;20.908;2023-04-29T09:52:04;16.80;63.30
21163;DHT22;10739;52.198;20.908;2023-04-29T09:54:32;16.60;62.60
21163;DHT22;10739;52.198;20.908;2023-04-29T09:57:04;16.40;62.00
21163;DHT22;10739;52.198;20.908;2023-04-29T09:59:33;16.40;63.10
21163;DHT22;10739;52.198;20.908;2023-04-29T10:02:06;16.50;63.30
21163;DHT22;10739;52.198;20.908;2023-04-29T10:04:40;17.00;62.70
21163;DHT22;10739;52.198;20.908;2023-04-29T10:07:16;17.00;61.60
21163;DHT22;10739;52.198;20.908;2023-04-29T10:09:45;17.60;61.90
21163;DHT22;10739;52.198;20.908;2023-04-29T10:12:16;18.30;59.90
21163;DHT22;10739;52.198;20.908;2023-04-29T10:18:13;20.20;55.50
21163;DHT22;10739;52.198;20.908;2023-04-29T10:20:46;20.80;53.10
21163;DHT22;10739;52.198;20.908;2023-04-29T10:23:14;19.90;55.10
21163;DHT22;10739;52.198;20.908;2023-04-29T10:25:41;20.50;54.30
21163;DHT22;10739;52.198;20.908;2023-04-29T10:28:14;20.80;53.10
21163;DHT22;10739;52.198;20.908;2023-04-29T10:30:44;20.60;53.80
21163;DHT22;10739;52.198;20.908;2023-04-29T10:33:16;21.50;52.20
21163;DHT22;10739;52.198;20.908;2023-04-29T10:35:44;21.90;50.40
21163;DHT22;10739;52.198;20.908;2023-04-29T10:38:21;21.80;50.30
21163;DHT22;10739;52.198;20.908;2023-04-29T10:40:53;21.00;51.40
21163;DHT22;10739;52.198;20.908;2023-04-29T10:43:23;20.90;52.30
21163;DHT22;10739;52.198;20.908;2023-04-29T10:46:23;21.10;51.70
21163;DHT22;10739;52.198;20.908;2023-04-29T10:48:59;21.40;51.10
21163;DHT22;10739;52.198;20.908;2023-04-29T10:51:28;21.60;50.90
21163;DHT22;10739;52.198;20.908;2023-04-29T10:56:36;22.50;50.60
21163;DHT22;10739;52.198;20.908;2023-04-29T10:59:17;22.50;49.90
21163;DHT22;10739;52.198;20.908;2023-04-29T11:01:50;21.50;49.50
21163;DHT22;10739;52.198;20.908;2023-04-29T11:04:21;22.90;49.10
21163;DHT22;10739;52.198;20.908;2023-04-29T11:06:55;22.90;48.90
21163;DHT22;10739;52.198;20.908;2023-04-29T11:09:28;22.30;48.20
21163;DHT22;10739;52.198;20.908;2023-04-29T11:14:36;22.60;48.70
21163;DHT22;10739;52.198;20.908;2023-04-29T11:17:15;22.80;48.40
21163;DHT22;10739;52.198;20.908;2023-04-29T11:19:49;22.70;48.50
21163;DHT22;10739;52.198;20.908;2023-04-29T11:25:02;22.00;49.00
21163;DHT22;10739;52.198;20.908;2023-04-29T11:27:38;22.70;49.00
21163;DHT22;10739;52.198;20.908;2023-04-29T11:30:07;22.40;49.20
21163;DHT22;10739;52.198;20.908;2023-04-29T11:32:36;22.60;49.50
21163;DHT22;10739;52.198;20.908;2023-04-29T11:35:08;23.30;49.30
21163;DHT22;10739;52.198;20.908;2023-04-29T11:37:38;22.90;47.40
21163;DHT22;10739;52.198;20.908;2023-04-29T11:40:06;21.90;49.80
21163;DHT22;10739;52.198;20.908;2023-04-29T11:42:34;22.20;49.10
21163;DHT22;10739;52.198;20.908;2023-04-29T11:45:01;21.40;50.20
21163;DHT22;10739;52.198;20.908;2023-04-29T11:47:29;20.80;52.80
21163;DHT22;10739;52.198;20.908;2023-04-29T11:50:06;21.60;52.00
21163;DHT22;10739;52.198;20.908;2023-04-29T11:52:36;22.00;49.30
21163;DHT22;10739;52.198;20.908;2023-04-29T11:55:08;22.30;50.10
21163;DHT22;10739;52.198;20.908;2023-04-29T11:57:36;22.30;48.90
21163;DHT22;10739;52.198;20.908;2023-04-29T12:00:04;21.40;50.80
21163;DHT22;10739;52.198;20.908;2023-04-29T12:02:33;20.70;52.50
21163;DHT22;10739;52.198;20.908;2023-04-29T12:05:05;20.70;53.20
21163;DHT22;10739;52.198;20.908;2023-04-29T12:07:36;21.30;51.20
21163;DHT22;10739;52.198;20.908;2023-04-29T12:10:08;22.70;48.80
21163;DHT22;10739;52.198;20.908;2023-04-29T12:12:36;22.60;49.20
21163;DHT22;10739;52.198;20.908;2023-04-29T12:15:07;23.10;48.00
21163;DHT22;10739;52.198;20.908;2023-04-29T12:17:35;23.20;47.80
21163;DHT22;10739;52.198;20.908;2023-04-29T12:20:02;23.80;47.30
21163;DHT22;10739;52.198;20.908;2023-04-29T12:22:32;22.50;48.40
21163;DHT22;10739;52.198;20.908;2023-04-29T12:25:01;22.90;50.40
21163;DHT22;10739;52.198;20.908;2023-04-29T12:27:28;23.00;47.20
21163;DHT22;10739;52.198;20.908;2023-04-29T12:29:56;22.60;48.90
21163;DHT22;10739;52.198;20.908;2023-04-29T12:32:23;23.10;47.80
21163;DHT22;10739;52.198;20.908;2023-04-29T12:34:51;23.40;47.90
21163;DHT22;10739;52.198;20.908;2023-04-29T12:37:17;23.30;47.50
21163;DHT22;10739;52.198;20.908;2023-04-29T12:39:44;22.20;49.30
21163;DHT22;10739;52.198;20.908;2023-04-29T12:42:14;21.80;50.50
21163;DHT22;10739;52.198;20.908;2023-04-29T12:44:45;21.10;50.40
21163;DHT22;10739;52.198;20.908;2023-04-29T12:47:15;20.70;50.40
21163;DHT22;10739;52.198;20.908;2023-04-29T12:49:46;20.10;51.30
21163;DHT22;10739;52.198;20.908;2023-04-29T12:52:14;20.10;51.90
21163;DHT22;10739;52.198;20.908;2023-04-29T12:54:40;21.00;50.90
21163;DHT22;10739;52.198;20.908;2023-04-29T12:57:11;21.30;51.20
21163;DHT22;10739;52.198;20.908;2023-04-29T12:59:37;21.70;49.80
21163;DHT22;10739;52.198;20.908;2023-04-29T13:02:05;20.60;51.30
21163;DHT22;10739;52.198;20.908;2023-04-29T13:04:32;20.70;51.10
21163;DHT22;10739;52.198;20.908;2023-04-29T13:06:58;20.90;50.30
21163;DHT22;10739;52.198;20.908;2023-04-29T13:09:25;21.20;49.40
21163;DHT22;10739;52.198;20.908;2023-04-29T13:11:52;22.10;49.70
21163;DHT22;10739;52.198;20.908;2023-04-29T13:14:18;22.20;48.10
21163;DHT22;10739;52.198;20.908;2023-04-29T13:16:45;21.80;47.70
21163;DHT22;10739;52.198;20.908;2023-04-29T13:19:11;21.10;48.70
21163;DHT22;10739;52.198;20.908;2023-04-29T13:21:38;21.30;50.70
21163;DHT22;10739;52.198;20.908;2023-04-29T13:24:04;21.30;49.30
21163;DHT22;10739;52.198;20.908;2023-04-29T13:26:31;20.90;50.00
21163;DHT22;10739;52.198;20.908;2023-04-29T13:28:57;20.70;50.10
21163;DHT22;10739;52.198;20.908;2023-04-29T13:31:23;20.90;49.80
21163;DHT22;10739;52.198;20.908;2023-04-29T13:33:50;20.70;49.50
21163;DHT22;10739;52.198;20.908;2023-04-29T13:36:17;20.80;49.80
21163;DHT22;10739;52.198;20.908;2023-04-29T13:38:43;21.00;50.10
21163;DHT22;10739;52.198;20.908;2023-04-29T13:41:10;20.80;49.90
21163;DHT22;10739;52.198;20.908;2023-04-29T13:43:37;20.90;49.60
21163;DHT22;10739;52.198;20.908;2023-04-29T13:46:03;20.50;49.80
21163;DHT22;10739;52.198;20.908;2023-04-29T13:48:30;20.30;51.30
21163;DHT22;10739;52.198;20.908;2023-04-29T13:50:56;19.60;52.30
21163;DHT22;10739;52.198;20.908;2023-04-29T13:53:22;19.40;52.90
21163;DHT22;10739;52.198;20.908;2023-04-29T13:55:48;19.30;52.50
21163;DHT22;10739;52.198;20.908;2023-04-29T13:58:15;19.20;53.00
21163;DHT22;10739;52.198;20.908;2023-04-29T14:00:41;19.10;54.30
21163;DHT22;10739;52.198;20.908;2023-04-29T14:03:07;18.90;55.00
21163;DHT22;10739;52.198;20.908;2023-04-29T14:05:34;18.90;55.20
21163;DHT22;10739;52.198;20.908;2023-04-29T14:08:01;19.00;54.80
21163;DHT22;10739;52.198;20.908;2023-04-29T14:10:27;19.10;54.80
21163;DHT22;10739;52.198;20.908;2023-04-29T14:12:54;18.50;54.90
21163;DHT22;10739;52.198;20.908;2023-04-29T14:15:20;18.80;56.30
21163;DHT22;10739;52.198;20.908;2023-04-29T14:17:53;19.10;55.50
21163;DHT22;10739;52.198;20.908;2023-04-29T14:20:19;19.20;55.00
21163;DHT22;10739;52.198;20.908;2023-04-29T14:22:46;19.00;54.80
21163;DHT22;10739;52.198;20.908;2023-04-29T14:25:12;18.80;55.30
21163;DHT22;10739;52.198;20.908;2023-04-29T14:27:38;18.80;55.40
21163;DHT22;10739;52.198;20.908;2023-04-29T14:30:05;18.70;55.60
21163;DHT22;10739;52.198;20.908;2023-04-29T14:32:32;18.60;55.30
21163;DHT22;10739;52.198;20.908;2023-04-29T14:34:58;18.60;56.30
21163;DHT22;10739;52.198;20.908;2023-04-29T14:37:24;18.50;56.70
21163;DHT22;10739;52.198;20.908;2023-04-29T14:39:51;18.50;57.30
21163;DHT22;10739;52.198;20.908;2023-04-29T14:42:17;18.60;57.30
21163;DHT22;10739;52.198;20.908;2023-04-29T14:44:44;18.80;58.90
21163;DHT22;10739;52.198;20.908;2023-04-29T14:47:10;18.70;57.30
21163;DHT22;10739;52.198;20.908;2023-04-29T14:49:36;18.60;57.70
21163;DHT22;10739;52.198;20.908;2023-04-29T14:52:02;18.90;57.30
21163;DHT22;10739;52.198;20.908;2023-04-29T14:54:29;19.00;57.20
21163;DHT22;10739;52.198;20.908;2023-04-29T14:56:56;19.20;56.80
21163;DHT22;10739;52.198;20.908;2023-04-29T14:59:22;19.20;56.50
21163;DHT22;10739;52.198;20.908;2023-04-29T15:01:48;19.20;57.30
21163;DHT22;10739;52.198;20.908;2023-04-29T15:04:14;19.20;57.20
21163;DHT22;10739;52.198;20.908;2023-04-29T15:06:41;19.20;56.70
21163;DHT22;10739;52.198;20.908;2023-04-29T15:09:07;18.90;57.50
21163;DHT22;10739;52.198;20.908;2023-04-29T15:11:34;18.90;57.30
21163;DHT22;10739;52.198;20.908;2023-04-29T15:14:00;18.80;55.60
21163;DHT22;10739;52.198;20.908;2023-04-29T15:16:26;18.70;55.70
21163;DHT22;10739;52.198;20.908;2023-04-29T15:18:54;18.70;56.20
21163;DHT22;10739;52.198;20.908;2023-04-29T15:21:20;18.70;56.80
21163;DHT22;10739;52.198;20.908;2023-04-29T15:23:46;18.60;57.20
21163;DHT22;10739;52.198;20.908;2023-04-29T15:26:13;18.40;57.60
21163;DHT22;10739;52.198;20.908;2023-04-29T15:28:39;18.50;58.10
21163;DHT22;10739;52.198;20.908;2023-04-29T15:31:05;18.50;57.00
21163;DHT22;10739;52.198;20.908;2023-04-29T15:33:32;18.20;57.70
21163;DHT22;10739;52.198;20.908;2023-04-29T15:35:59;18.20;58.50
21163;DHT22;10739;52.198;20.908;2023-04-29T15:38:25;18.30;57.70
21163;DHT22;10739;52.198;20.908;2023-04-29T15:40:51;18.20;57.80
21163;DHT22;10739;52.198;20.908;2023-04-29T15:43:23;18.20;57.70
21163;DHT22;10739;52.198;20.908;2023-04-29T15:45:49;18.30;58.10
21163;DHT22;10739;52.198;20.908;2023-04-29T15:48:16;18.20;58.40
21163;DHT22;10739;52.198;20.908;2023-04-29T15:50:42;18.10;58.00
21163;DHT22;10739;52.198;20.908;2023-04-29T15:53:08;18.00;58.20